createdAt,value
2018-03-26T00:00:53.066Z,0
2018-03-26T00:01:53.089Z,0
2018-03-26T00:02:52.849Z,0
2018-03-26T00:03:53.383Z,0
2018-03-26T00:04:53.409Z,0
2018-03-26T00:05:53.159Z,0
2018-03-26T00:06:53.191Z,0
2018-03-26T00:07:53.192Z,0
2018-03-26T00:08:52.962Z,0
2018-03-26T00:09:53.030Z,0
2018-03-26T00:10:53.252Z,0
2018-03-26T00:11:53.515Z,0
2018-03-26T00:12:53.299Z,0
2018-03-26T00:13:53.051Z,0
2018-03-26T00:14:53.324Z,0
2018-03-26T00:15:53.340Z,0
2018-03-26T00:16:53.361Z,0
2018-03-26T00:17:53.648Z,0
2018-03-26T00:18:53.417Z,0
2018-03-26T00:19:53.663Z,0
2018-03-26T00:20:53.692Z,0
2018-03-26T00:21:53.814Z,0
2018-03-26T00:22:53.466Z,0
2018-03-26T00:23:53.228Z,0
2018-03-26T00:24:53.548Z,0
2018-03-26T00:25:53.780Z,0
2018-03-26T00:26:53.779Z,0
2018-03-26T00:27:53.553Z,0
2018-03-26T00:28:53.562Z,0
2018-03-26T00:29:53.591Z,0
2018-03-26T00:30:53.863Z,0
2018-03-26T00:31:53.893Z,0
2018-03-26T00:32:53.396Z,0
2018-03-26T00:33:53.162Z,0
2018-03-26T00:34:53.720Z,0
2018-03-26T00:35:53.452Z,0
2018-03-26T00:36:53.718Z,0
2018-03-26T00:37:53.737Z,0
2018-03-26T00:38:53.767Z,0
2018-03-26T00:39:53.577Z,0
2018-03-26T00:40:54.047Z,0
2018-03-26T00:41:53.553Z,0
2018-03-26T00:42:53.868Z,0
2018-03-26T00:43:54.149Z,0
2018-03-26T00:44:53.613Z,0
2018-03-26T00:45:53.626Z,0
2018-03-26T00:46:53.642Z,0
2018-03-26T00:47:53.913Z,0
2018-03-26T00:48:53.943Z,0
2018-03-26T00:49:53.439Z,0
2018-03-26T00:50:53.461Z,0
2018-03-26T00:51:53.823Z,0
2018-03-26T00:52:54.256Z,0
2018-03-26T00:53:53.765Z,0
2018-03-26T00:54:54.044Z,0
2018-03-26T00:55:54.316Z,0
2018-03-26T00:56:53.860Z,0
2018-03-26T00:57:53.831Z,0
2018-03-26T00:58:54.361Z,0
2018-03-26T00:59:54.123Z,0
2018-03-26T01:00:54.448Z,0
2018-03-26T01:01:54.162Z,0
2018-03-26T01:02:54.178Z,0
2018-03-26T01:03:53.690Z,0
2018-03-26T01:04:54.222Z,0
2018-03-26T01:05:54.482Z,0
2018-03-26T01:06:54.345Z,0
2018-03-26T01:07:54.011Z,0
2018-03-26T01:08:54.028Z,0
2018-03-26T01:09:54.549Z,0
2018-03-26T01:10:54.573Z,0
2018-03-26T01:11:54.384Z,0
2018-03-26T01:12:53.666Z,0
2018-03-26T01:13:53.856Z,0
2018-03-26T01:14:54.644Z,0
2018-03-26T01:15:54.148Z,0
2018-03-26T01:16:54.238Z,0
2018-03-26T01:17:53.923Z,0
2018-03-26T01:18:54.201Z,0
2018-03-26T01:19:54.465Z,0
2018-03-26T01:20:54.544Z,0
2018-03-26T01:21:54.773Z,0
2018-03-26T01:22:54.270Z,0
2018-03-26T01:23:54.812Z,0
2018-03-26T01:24:54.569Z,0
2018-03-26T01:25:54.586Z,0
2018-03-26T01:26:54.851Z,0
2018-03-26T01:27:54.358Z,0
2018-03-26T01:28:54.368Z,0
2018-03-26T01:29:54.646Z,0
2018-03-26T01:30:54.681Z,0
2018-03-26T01:31:54.469Z,0
2018-03-26T01:32:54.694Z,0
2018-03-26T01:33:54.769Z,0
2018-03-26T01:34:54.988Z,0
2018-03-26T01:35:54.751Z,0
2018-03-26T01:36:54.760Z,0
2018-03-26T01:37:55.029Z,0
2018-03-26T01:38:54.792Z,0
2018-03-26T01:39:54.821Z,0
2018-03-26T01:40:55.092Z,0
2018-03-26T01:41:55.117Z,0
2018-03-26T01:42:54.863Z,0
2018-03-26T01:43:54.635Z,0
2018-03-26T01:44:55.157Z,0
2018-03-26T01:45:54.927Z,0
2018-03-26T01:46:55.125Z,0
2018-03-26T01:47:54.960Z,0
2018-03-26T01:48:55.222Z,0
2018-03-26T01:49:54.993Z,0
2018-03-26T01:50:55.033Z,0
2018-03-26T01:51:55.036Z,0
2018-03-26T01:52:54.788Z,0
2018-03-26T01:53:55.061Z,0
2018-03-26T01:54:55.093Z,0
2018-03-26T01:55:55.093Z,0
2018-03-26T01:56:54.958Z,0
2018-03-26T01:57:55.143Z,0
2018-03-26T01:58:55.160Z,0
2018-03-26T01:59:55.161Z,0
2018-03-26T02:00:55.196Z,0
2018-03-26T02:01:55.037Z,0
2018-03-26T02:02:55.469Z,0
2018-03-26T02:03:54.725Z,0
2018-03-26T02:04:55.289Z,0
2018-03-26T02:05:55.270Z,0
2018-03-26T02:06:54.782Z,0
2018-03-26T02:07:55.300Z,0
2018-03-26T02:08:55.330Z,0
2018-03-26T02:09:55.647Z,0
2018-03-26T02:10:55.623Z,0
2018-03-26T02:11:55.426Z,0
2018-03-26T02:12:55.134Z,0
2018-03-26T02:13:54.921Z,0
2018-03-26T02:14:54.918Z,0
2018-03-26T02:15:55.193Z,0
2018-03-26T02:16:55.727Z,0
2018-03-26T02:17:55.499Z,0
2018-03-26T02:18:55.507Z,0
2018-03-26T02:19:55.765Z,0
2018-03-26T02:20:55.018Z,0
2018-03-26T02:21:55.799Z,0
2018-03-26T02:22:55.561Z,0
2018-03-26T02:23:55.607Z,0
2018-03-26T02:24:55.902Z,0
2018-03-26T02:25:55.374Z,0
2018-03-26T02:26:55.432Z,0
2018-03-26T02:27:55.400Z,0
2018-03-26T02:28:55.395Z,0
2018-03-26T02:29:55.654Z,0
2018-03-26T02:30:55.511Z,0
2018-03-26T02:31:55.964Z,0
2018-03-26T02:32:55.991Z,0
2018-03-26T02:33:55.776Z,0
2018-03-26T02:34:55.533Z,0
2018-03-26T02:35:55.291Z,0
2018-03-26T02:36:56.072Z,0
2018-03-26T02:37:56.104Z,0
2018-03-26T02:38:56.111Z,0
2018-03-26T02:39:55.608Z,0
2018-03-26T02:40:55.640Z,0
2018-03-26T02:41:55.444Z,0
2018-03-26T02:42:56.184Z,0
2018-03-26T02:43:56.193Z,0
2018-03-26T02:44:55.939Z,0
2018-03-26T02:45:55.963Z,0
2018-03-26T02:46:56.303Z,0
2018-03-26T02:47:55.506Z,0
2018-03-26T02:48:56.343Z,0
2018-03-26T02:49:56.319Z,0
2018-03-26T02:50:56.187Z,0
2018-03-26T02:51:56.364Z,0
2018-03-26T02:52:55.851Z,0
2018-03-26T02:53:55.864Z,0
2018-03-26T02:54:56.147Z,0
2018-03-26T02:55:55.903Z,0
2018-03-26T02:56:56.421Z,0
2018-03-26T02:57:56.449Z,0
2018-03-26T02:58:55.951Z,0
2018-03-26T02:59:55.969Z,0
2018-03-26T03:00:56.237Z,0
2018-03-26T03:01:56.306Z,0
2018-03-26T03:02:56.548Z,0
2018-03-26T03:03:56.050Z,0
2018-03-26T03:04:56.307Z,0
2018-03-26T03:05:56.584Z,0
2018-03-26T03:06:56.612Z,0
2018-03-26T03:07:55.845Z,0
2018-03-26T03:08:56.367Z,0
2018-03-26T03:09:56.393Z,0
2018-03-26T03:10:56.150Z,0
2018-03-26T03:11:56.443Z,0
2018-03-26T03:12:55.933Z,0
2018-03-26T03:13:56.711Z,0
2018-03-26T03:14:56.481Z,0
2018-03-26T03:15:56.004Z,0
2018-03-26T03:16:56.819Z,0
2018-03-26T03:17:56.536Z,0
2018-03-26T03:18:56.557Z,0
2018-03-26T03:19:56.837Z,0
2018-03-26T03:20:56.600Z,0
2018-03-26T03:21:56.350Z,0
2018-03-26T03:22:56.357Z,0
2018-03-26T03:23:56.625Z,0
2018-03-26T03:24:56.910Z,0
2018-03-26T03:25:56.413Z,0
2018-03-26T03:26:56.667Z,0
2018-03-26T03:27:56.958Z,0
2018-03-26T03:28:56.458Z,0
2018-03-26T03:29:56.747Z,0
2018-03-26T03:30:56.781Z,0
2018-03-26T03:31:57.070Z,0
2018-03-26T03:32:57.069Z,0
2018-03-26T03:33:56.811Z,0
2018-03-26T03:34:56.827Z,0
2018-03-26T03:35:57.101Z,0
2018-03-26T03:36:56.856Z,0
2018-03-26T03:37:57.130Z,0
2018-03-26T03:38:56.908Z,0
2018-03-26T03:39:56.916Z,0
2018-03-26T03:40:56.419Z,0
2018-03-26T03:41:56.175Z,0
2018-03-26T03:42:56.965Z,0
2018-03-26T03:43:56.717Z,0
2018-03-26T03:44:57.004Z,0
2018-03-26T03:45:57.006Z,0
2018-03-26T03:46:57.272Z,0
2018-03-26T03:47:56.788Z,0
2018-03-26T03:48:57.061Z,0
2018-03-26T03:49:57.126Z,0
2018-03-26T03:50:56.845Z,0
2018-03-26T03:51:56.862Z,0
2018-03-26T03:52:57.126Z,0
2018-03-26T03:53:57.144Z,0
2018-03-26T03:54:56.910Z,0
2018-03-26T03:55:57.179Z,0
2018-03-26T03:56:57.447Z,0
2018-03-26T03:57:57.205Z,0
2018-03-26T03:58:57.219Z,0
2018-03-26T03:59:57.592Z,0
2018-03-26T04:00:57.268Z,0
2018-03-26T04:01:57.272Z,0
2018-03-26T04:02:57.303Z,0
2018-03-26T04:03:57.315Z,0
2018-03-26T04:04:57.484Z,0
2018-03-26T04:05:57.605Z,0
2018-03-26T04:06:57.353Z,0
2018-03-26T04:07:57.632Z,0
2018-03-26T04:08:57.642Z,0
2018-03-26T04:09:57.139Z,0
2018-03-26T04:10:57.674Z,0
2018-03-26T04:11:57.430Z,0
2018-03-26T04:12:57.705Z,0
2018-03-26T04:13:57.464Z,0
2018-03-26T04:14:57.247Z,0
2018-03-26T04:15:57.240Z,0
2018-03-26T04:16:57.771Z,0
2018-03-26T04:17:58.024Z,0
2018-03-26T04:18:57.047Z,0
2018-03-26T04:19:57.373Z,0
2018-03-26T04:20:57.595Z,0
2018-03-26T04:21:57.359Z,0
2018-03-26T04:22:57.119Z,0
2018-03-26T04:23:57.649Z,0
2018-03-26T04:24:57.677Z,0
2018-03-26T04:25:57.871Z,0
2018-03-26T04:26:57.706Z,0
2018-03-26T04:27:57.968Z,0
2018-03-26T04:28:57.993Z,0
2018-03-26T04:29:57.501Z,0
2018-03-26T04:30:57.783Z,0
2018-03-26T04:31:57.781Z,0
2018-03-26T04:32:57.554Z,0
2018-03-26T04:33:58.086Z,0
2018-03-26T04:34:58.146Z,0
2018-03-26T04:35:57.851Z,0
2018-03-26T04:36:57.876Z,0
2018-03-26T04:37:57.890Z,0
2018-03-26T04:38:57.616Z,0
2018-03-26T04:39:57.895Z,0
2018-03-26T04:40:57.659Z,0
2018-03-26T04:41:58.222Z,0
2018-03-26T04:42:57.968Z,0
2018-03-26T04:43:57.738Z,0
2018-03-26T04:44:58.258Z,0
2018-03-26T04:45:58.042Z,0
2018-03-26T04:46:57.790Z,0
2018-03-26T04:47:58.321Z,0
2018-03-26T04:48:58.072Z,0
2018-03-26T04:49:58.210Z,0
2018-03-26T04:50:58.357Z,0
2018-03-26T04:51:58.140Z,0
2018-03-26T04:52:57.627Z,0
2018-03-26T04:53:57.902Z,0
2018-03-26T04:54:57.668Z,0
2018-03-26T04:55:58.054Z,0
2018-03-26T04:56:57.961Z,0
2018-03-26T04:57:58.230Z,0
2018-03-26T04:58:58.497Z,0
2018-03-26T04:59:58.256Z,0
2018-03-26T05:00:57.760Z,0
2018-03-26T05:01:57.780Z,0
2018-03-26T05:02:58.557Z,0
2018-03-26T05:03:58.577Z,5
2018-03-26T05:04:58.598Z,5
2018-03-26T05:05:58.626Z,5
2018-03-26T05:06:58.872Z,5
2018-03-26T05:07:58.392Z,5
2018-03-26T05:08:58.129Z,5
2018-03-26T05:09:58.136Z,5
2018-03-26T05:10:58.680Z,10
2018-03-26T05:11:58.469Z,10
2018-03-26T05:12:58.215Z,10
2018-03-26T05:13:58.491Z,10
2018-03-26T05:14:58.498Z,10
2018-03-26T05:15:58.525Z,10
2018-03-26T05:16:58.293Z,10
2018-03-26T05:17:58.298Z,15
2018-03-26T05:18:58.564Z,15
2018-03-26T05:19:58.588Z,15
2018-03-26T05:20:58.343Z,15
2018-03-26T05:21:58.611Z,15
2018-03-26T05:22:58.917Z,15
2018-03-26T05:23:58.662Z,20
2018-03-26T05:24:58.664Z,20
2018-03-26T05:25:58.967Z,20
2018-03-26T05:26:58.996Z,20
2018-03-26T05:27:58.451Z,25
2018-03-26T05:28:58.727Z,25
2018-03-26T05:29:58.747Z,25
2018-03-26T05:30:59.078Z,25
2018-03-26T05:31:58.880Z,25
2018-03-26T05:32:58.540Z,25
2018-03-26T05:33:58.802Z,25
2018-03-26T05:34:58.570Z,25
2018-03-26T05:35:58.792Z,25
2018-03-26T05:36:59.166Z,25
2018-03-26T05:37:58.363Z,25
2018-03-26T05:38:58.894Z,30
2018-03-26T05:39:58.905Z,30
2018-03-26T05:40:59.249Z,30
2018-03-26T05:41:58.942Z,30
2018-03-26T05:42:58.442Z,30
2018-03-26T05:43:58.967Z,35
2018-03-26T05:44:58.983Z,35
2018-03-26T05:45:58.749Z,40
2018-03-26T05:46:58.508Z,45
2018-03-26T05:47:58.782Z,45
2018-03-26T05:48:59.043Z,50
2018-03-26T05:49:59.395Z,50
2018-03-26T05:50:59.344Z,55
2018-03-26T05:51:58.640Z,55
2018-03-26T05:52:58.900Z,55
2018-03-26T05:53:59.375Z,55
2018-03-26T05:54:59.399Z,55
2018-03-26T05:55:59.152Z,55
2018-03-26T05:56:59.173Z,55
2018-03-26T05:57:58.682Z,55
2018-03-26T05:58:59.212Z,55
2018-03-26T05:59:58.974Z,60
2018-03-26T06:00:59.500Z,60
2018-03-26T06:01:59.256Z,60
2018-03-26T06:02:59.271Z,60
2018-03-26T06:03:59.046Z,65
2018-03-26T06:04:59.307Z,65
2018-03-26T06:05:59.328Z,65
2018-03-26T06:06:59.345Z,60
2018-03-26T06:07:59.111Z,60
2018-03-26T06:08:59.382Z,55
2018-03-26T06:09:59.393Z,55
2018-03-26T06:10:59.150Z,50
2018-03-26T06:11:59.551Z,50
2018-03-26T06:12:59.442Z,50
2018-03-26T06:13:58.940Z,50
2018-03-26T06:14:59.488Z,50
2018-03-26T06:15:59.744Z,55
2018-03-26T06:16:59.247Z,55
2018-03-26T06:17:59.587Z,60
2018-03-26T06:18:59.279Z,60
2018-03-26T06:19:59.043Z,60
2018-03-26T06:20:59.571Z,60
2018-03-26T06:21:59.587Z,60
2018-03-26T06:22:59.594Z,60
2018-03-26T06:23:59.611Z,65
2018-03-26T06:25:00.158Z,65
2018-03-26T06:25:59.645Z,70
2018-03-26T06:26:59.408Z,75
2018-03-26T06:27:59.678Z,75
2018-03-26T06:28:59.712Z,80
2018-03-26T06:29:59.457Z,85
2018-03-26T06:30:59.972Z,90
2018-03-26T06:31:59.245Z,95
2018-03-26T06:32:59.823Z,95
2018-03-26T06:33:59.528Z,100
2018-03-26T06:34:59.796Z,105
2018-03-26T06:35:59.313Z,110
2018-03-26T06:36:59.838Z,110
2018-03-26T06:37:59.659Z,115
2018-03-26T06:38:59.890Z,120
2018-03-26T06:39:59.884Z,125
2018-03-26T06:40:59.654Z,130
2018-03-26T06:41:59.673Z,125
2018-03-26T06:42:59.931Z,130
2018-03-26T06:44:00.207Z,130
2018-03-26T06:44:59.458Z,125
2018-03-26T06:45:59.978Z,125
2018-03-26T06:47:00.304Z,125
2018-03-26T06:47:59.813Z,120
2018-03-26T06:48:59.779Z,120
2018-03-26T06:49:59.550Z,120
2018-03-26T06:51:00.069Z,120
2018-03-26T06:51:59.827Z,115
2018-03-26T06:53:00.215Z,115
2018-03-26T06:54:00.368Z,115
2018-03-26T06:54:59.884Z,115
2018-03-26T06:56:00.422Z,115
2018-03-26T06:56:59.919Z,115
2018-03-26T06:58:00.448Z,115
2018-03-26T06:59:00.199Z,115
2018-03-26T06:59:59.730Z,115
2018-03-26T07:00:59.473Z,110
2018-03-26T07:01:59.995Z,110
2018-03-26T07:03:00.329Z,105
2018-03-26T07:04:00.545Z,100
2018-03-26T07:05:00.565Z,100
2018-03-26T07:05:59.812Z,95
2018-03-26T07:07:00.084Z,95
2018-03-26T07:07:59.598Z,95
2018-03-26T07:09:00.369Z,95
2018-03-26T07:10:00.630Z,95
2018-03-26T07:11:00.397Z,95
2018-03-26T07:12:00.421Z,95
2018-03-26T07:13:00.187Z,95
2018-03-26T07:14:00.718Z,100
2018-03-26T07:15:00.224Z,100
2018-03-26T07:16:00.549Z,105
2018-03-26T07:16:59.999Z,105
2018-03-26T07:18:00.581Z,105
2018-03-26T07:19:00.880Z,105
2018-03-26T07:20:00.569Z,105
2018-03-26T07:21:00.841Z,105
2018-03-26T07:22:00.597Z,105
2018-03-26T07:23:00.365Z,105
2018-03-26T07:24:00.631Z,105
2018-03-26T07:25:00.644Z,100
2018-03-26T07:26:00.940Z,100
2018-03-26T07:27:00.428Z,100
2018-03-26T07:28:00.453Z,100
2018-03-26T07:29:00.903Z,100
2018-03-26T07:30:00.478Z,95
2018-03-26T07:31:01.008Z,95
2018-03-26T07:32:01.025Z,95
2018-03-26T07:33:00.832Z,100
2018-03-26T07:34:00.809Z,100
2018-03-26T07:35:00.311Z,105
2018-03-26T07:36:01.113Z,105
2018-03-26T07:37:01.103Z,105
2018-03-26T07:38:00.610Z,110
2018-03-26T07:39:00.883Z,110
2018-03-26T07:40:01.137Z,115
2018-03-26T07:41:00.649Z,115
2018-03-26T07:42:00.924Z,120
2018-03-26T07:43:00.893Z,120
2018-03-26T07:44:01.217Z,125
2018-03-26T07:45:00.990Z,125
2018-03-26T07:46:01.257Z,125
2018-03-26T07:47:00.770Z,125
2018-03-26T07:48:01.344Z,125
2018-03-26T07:49:01.059Z,125
2018-03-26T07:50:01.203Z,130
2018-03-26T07:51:00.595Z,130
2018-03-26T07:52:01.004Z,130
2018-03-26T07:53:00.615Z,130
2018-03-26T07:54:01.383Z,135
2018-03-26T07:55:01.402Z,135
2018-03-26T07:56:00.908Z,135
2018-03-26T07:57:00.932Z,130
2018-03-26T07:58:00.693Z,130
2018-03-26T07:59:01.234Z,130
2018-03-26T08:00:01.237Z,135
2018-03-26T08:01:01.001Z,135
2018-03-26T08:02:01.550Z,135
2018-03-26T08:03:01.599Z,135
2018-03-26T08:04:01.062Z,140
2018-03-26T08:05:00.611Z,140
2018-03-26T08:06:01.113Z,140
2018-03-26T08:07:01.358Z,140
2018-03-26T08:08:01.132Z,135
2018-03-26T08:09:01.396Z,135
2018-03-26T08:10:01.669Z,135
2018-03-26T08:11:01.190Z,135
2018-03-26T08:12:01.703Z,135
2018-03-26T08:13:01.459Z,135
2018-03-26T08:14:01.225Z,135
2018-03-26T08:15:00.990Z,135
2018-03-26T08:16:01.268Z,140
2018-03-26T08:17:01.731Z,145
2018-03-26T08:18:01.357Z,140
2018-03-26T08:19:01.601Z,145
2018-03-26T08:20:01.346Z,145
2018-03-26T08:21:01.347Z,150
2018-03-26T08:22:01.620Z,155
2018-03-26T08:23:01.135Z,155
2018-03-26T08:24:01.400Z,155
2018-03-26T08:25:01.678Z,160
2018-03-26T08:26:01.694Z,160
2018-03-26T08:27:01.712Z,160
2018-03-26T08:28:01.735Z,165
2018-03-26T08:29:01.493Z,170
2018-03-26T08:30:01.510Z,170
2018-03-26T08:31:01.868Z,170
2018-03-26T08:32:02.055Z,170
2018-03-26T08:33:01.605Z,170
2018-03-26T08:34:01.597Z,170
2018-03-26T08:35:01.855Z,170
2018-03-26T08:36:01.867Z,165
2018-03-26T08:37:02.137Z,165
2018-03-26T08:38:02.116Z,165
2018-03-26T08:39:01.686Z,165
2018-03-26T08:40:01.934Z,165
2018-03-26T08:41:01.948Z,165
2018-03-26T08:42:01.721Z,165
2018-03-26T08:43:01.996Z,170
2018-03-26T08:44:01.751Z,170
2018-03-26T08:45:02.276Z,175
2018-03-26T08:46:01.792Z,175
2018-03-26T08:47:02.064Z,180
2018-03-26T08:48:02.386Z,185
2018-03-26T08:49:02.098Z,185
2018-03-26T08:50:02.908Z,190
2018-03-26T08:51:02.118Z,190
2018-03-26T08:52:02.136Z,195
2018-03-26T08:53:01.685Z,195
2018-03-26T08:54:01.924Z,200
2018-03-26T08:55:02.461Z,200
2018-03-26T08:56:02.208Z,200
2018-03-26T08:57:02.229Z,200
2018-03-26T08:58:02.494Z,205
2018-03-26T08:59:02.264Z,205
2018-03-26T09:00:02.594Z,210
2018-03-26T09:01:02.066Z,210
2018-03-26T09:02:02.328Z,210
2018-03-26T09:03:02.080Z,215
2018-03-26T09:04:02.363Z,225
2018-03-26T09:05:02.376Z,235
2018-03-26T09:06:02.399Z,240
2018-03-26T09:07:02.431Z,245
2018-03-26T09:08:02.171Z,255
2018-03-26T09:09:01.942Z,255
2018-03-26T09:10:02.210Z,255
2018-03-26T09:11:02.732Z,255
2018-03-26T09:12:02.847Z,255
2018-03-26T09:13:02.512Z,255
2018-03-26T09:14:02.783Z,260
2018-03-26T09:15:02.355Z,270
2018-03-26T09:16:02.882Z,280
2018-03-26T09:17:02.852Z,290
2018-03-26T09:18:02.609Z,300
2018-03-26T09:19:02.895Z,325
2018-03-26T09:20:02.898Z,325
2018-03-26T09:21:02.418Z,330
2018-03-26T09:22:02.681Z,355
2018-03-26T09:23:02.448Z,360
2018-03-26T09:24:02.977Z,370
2018-03-26T09:25:02.783Z,380
2018-03-26T09:26:03.149Z,395
2018-03-26T09:27:02.786Z,415
2018-03-26T09:28:03.053Z,470
2018-03-26T09:29:02.815Z,415
2018-03-26T09:30:02.835Z,385
2018-03-26T09:31:03.112Z,380
2018-03-26T09:32:03.136Z,375
2018-03-26T09:33:02.888Z,380
2018-03-26T09:34:02.915Z,370
2018-03-26T09:35:02.925Z,360
2018-03-26T09:36:02.695Z,350
2018-03-26T09:37:02.453Z,325
2018-03-26T09:38:02.988Z,310
2018-03-26T09:39:03.004Z,295
2018-03-26T09:40:03.434Z,275
2018-03-26T09:41:03.042Z,260
2018-03-26T09:42:03.066Z,240
2018-03-26T09:43:02.829Z,230
2018-03-26T09:44:02.597Z,225
2018-03-26T09:45:03.120Z,235
2018-03-26T09:46:02.902Z,245
2018-03-26T09:47:03.174Z,250
2018-03-26T09:48:03.456Z,255
2018-03-26T09:49:03.447Z,250
2018-03-26T09:50:02.999Z,245
2018-03-26T09:51:03.479Z,240
2018-03-26T09:52:03.276Z,230
2018-03-26T09:53:03.275Z,235
2018-03-26T09:54:03.035Z,250
2018-03-26T09:55:03.316Z,270
2018-03-26T09:56:03.146Z,295
2018-03-26T09:57:02.850Z,320
2018-03-26T09:58:03.124Z,340
2018-03-26T09:59:03.402Z,345
2018-03-26T10:00:03.421Z,350
2018-03-26T10:01:03.440Z,345
2018-03-26T10:02:03.462Z,345
2018-03-26T10:03:03.498Z,335
2018-03-26T10:04:03.243Z,325
2018-03-26T10:05:03.263Z,320
2018-03-26T10:06:03.289Z,315
2018-03-26T10:07:03.317Z,315
2018-03-26T10:08:03.334Z,315
2018-03-26T10:09:03.599Z,305
2018-03-26T10:10:03.366Z,305
2018-03-26T10:11:02.924Z,300
2018-03-26T10:12:03.657Z,305
2018-03-26T10:13:03.688Z,315
2018-03-26T10:14:03.950Z,315
2018-03-26T10:15:03.719Z,320
2018-03-26T10:16:03.804Z,320
2018-03-26T10:17:03.750Z,305
2018-03-26T10:18:04.041Z,285
2018-03-26T10:19:03.773Z,270
2018-03-26T10:20:03.547Z,270
2018-03-26T10:21:03.815Z,270
2018-03-26T10:22:03.643Z,280
2018-03-26T10:23:03.881Z,290
2018-03-26T10:24:03.647Z,295
2018-03-26T10:25:03.923Z,290
2018-03-26T10:26:03.783Z,290
2018-03-26T10:27:03.975Z,275
2018-03-26T10:28:04.256Z,270
2018-03-26T10:29:03.737Z,270
2018-03-26T10:30:03.772Z,265
2018-03-26T10:31:04.296Z,255
2018-03-26T10:32:04.056Z,250
2018-03-26T10:33:03.812Z,240
2018-03-26T10:34:03.834Z,235
2018-03-26T10:35:04.119Z,235
2018-03-26T10:36:04.117Z,235
2018-03-26T10:37:04.412Z,235
2018-03-26T10:38:04.177Z,240
2018-03-26T10:39:04.207Z,240
2018-03-26T10:40:03.706Z,240
2018-03-26T10:41:04.036Z,245
2018-03-26T10:42:04.259Z,250
2018-03-26T10:43:03.791Z,245
2018-03-26T10:44:04.044Z,235
2018-03-26T10:45:04.319Z,220
2018-03-26T10:46:04.089Z,210
2018-03-26T10:47:04.383Z,195
2018-03-26T10:48:04.384Z,190
2018-03-26T10:49:04.156Z,190
2018-03-26T10:50:04.672Z,195
2018-03-26T10:51:04.832Z,205
2018-03-26T10:52:04.714Z,220
2018-03-26T10:53:04.290Z,230
2018-03-26T10:54:03.740Z,245
2018-03-26T10:55:04.508Z,260
2018-03-26T10:56:04.182Z,280
2018-03-26T10:57:04.810Z,290
2018-03-26T10:58:04.325Z,305
2018-03-26T10:59:04.343Z,315
2018-03-26T11:00:04.369Z,315
2018-03-26T11:01:04.954Z,315
2018-03-26T11:02:04.654Z,325
2018-03-26T11:03:04.425Z,340
2018-03-26T11:04:04.693Z,355
2018-03-26T11:05:04.727Z,355
2018-03-26T11:06:04.495Z,360
2018-03-26T11:07:05.014Z,360
2018-03-26T11:08:04.776Z,370
2018-03-26T11:09:04.801Z,380
2018-03-26T11:10:04.315Z,395
2018-03-26T11:11:04.919Z,405
2018-03-26T11:12:04.352Z,415
2018-03-26T11:13:04.633Z,415
2018-03-26T11:14:04.697Z,400
2018-03-26T11:15:04.645Z,375
2018-03-26T11:16:04.947Z,355
2018-03-26T11:17:04.708Z,350
2018-03-26T11:18:04.479Z,355
2018-03-26T11:19:04.755Z,360
2018-03-26T11:20:04.534Z,370
2018-03-26T11:21:05.053Z,375
2018-03-26T11:22:05.328Z,355
2018-03-26T11:23:05.103Z,350
2018-03-26T11:24:05.154Z,355
2018-03-26T11:25:04.874Z,355
2018-03-26T11:26:04.906Z,355
2018-03-26T11:27:04.913Z,360
2018-03-26T11:28:04.993Z,360
2018-03-26T11:29:05.476Z,355
2018-03-26T11:30:05.292Z,360
2018-03-26T11:31:05.509Z,360
2018-03-26T11:32:05.531Z,365
2018-03-26T11:33:05.296Z,370
2018-03-26T11:34:04.553Z,370
2018-03-26T11:35:05.348Z,390
2018-03-26T11:36:05.110Z,400
2018-03-26T11:37:05.129Z,410
2018-03-26T11:38:05.425Z,415
2018-03-26T11:39:05.432Z,455
2018-03-26T11:40:04.936Z,450
2018-03-26T11:41:05.212Z,485
2018-03-26T11:42:05.490Z,445
2018-03-26T11:43:05.504Z,410
2018-03-26T11:44:05.779Z,355
2018-03-26T11:45:05.562Z,310
2018-03-26T11:46:05.585Z,280
2018-03-26T11:47:05.898Z,265
2018-03-26T11:48:05.365Z,250
2018-03-26T11:49:05.962Z,235
2018-03-26T11:50:05.400Z,230
2018-03-26T11:51:05.430Z,225
2018-03-26T11:52:05.454Z,225
2018-03-26T11:53:05.728Z,220
2018-03-26T11:54:05.998Z,215
2018-03-26T11:55:06.029Z,215
2018-03-26T11:56:05.533Z,215
2018-03-26T11:57:05.807Z,215
2018-03-26T11:58:06.079Z,210
2018-03-26T11:59:05.582Z,210
2018-03-26T12:00:05.602Z,210
2018-03-26T12:01:05.886Z,210
2018-03-26T12:02:05.927Z,205
2018-03-26T12:03:06.171Z,200
2018-03-26T12:04:06.191Z,195
2018-03-26T12:05:05.739Z,185
2018-03-26T12:06:05.488Z,180
2018-03-26T12:07:06.091Z,170
2018-03-26T12:08:06.308Z,165
2018-03-26T12:09:06.383Z,160
2018-03-26T12:10:06.334Z,155
2018-03-26T12:11:06.112Z,145
2018-03-26T12:12:06.249Z,145
2018-03-26T12:13:06.189Z,135
2018-03-26T12:14:06.428Z,125
2018-03-26T12:15:06.191Z,120
2018-03-26T12:16:05.951Z,110
2018-03-26T12:17:06.532Z,105
2018-03-26T12:18:06.238Z,100
2018-03-26T12:19:06.261Z,100
2018-03-26T12:20:06.284Z,95
2018-03-26T12:21:06.057Z,95
2018-03-26T12:22:06.069Z,90
2018-03-26T12:23:06.086Z,85
2018-03-26T12:24:06.624Z,85
2018-03-26T12:25:06.163Z,80
2018-03-26T12:26:06.403Z,80
2018-03-26T12:27:06.160Z,80
2018-03-26T12:28:06.443Z,80
2018-03-26T12:29:06.202Z,80
2018-03-26T12:30:06.277Z,80
2018-03-26T12:31:06.241Z,80
2018-03-26T12:32:06.527Z,80
2018-03-26T12:33:06.330Z,80
2018-03-26T12:34:06.069Z,80
2018-03-26T12:35:06.315Z,75
2018-03-26T12:36:06.365Z,75
2018-03-26T12:37:06.611Z,75
2018-03-26T12:38:06.852Z,75
2018-03-26T12:39:06.369Z,75
2018-03-26T12:40:06.712Z,75
2018-03-26T12:41:06.692Z,75
2018-03-26T12:42:06.712Z,75
2018-03-26T12:43:06.566Z,75
2018-03-26T12:44:06.752Z,75
2018-03-26T12:45:06.261Z,80
2018-03-26T12:46:06.778Z,80
2018-03-26T12:47:06.315Z,80
2018-03-26T12:48:07.120Z,80
2018-03-26T12:49:07.093Z,80
2018-03-26T12:50:06.598Z,80
2018-03-26T12:51:06.642Z,80
2018-03-26T12:52:06.891Z,80
2018-03-26T12:53:06.421Z,80
2018-03-26T12:54:06.938Z,80
2018-03-26T12:55:06.952Z,80
2018-03-26T12:56:07.226Z,80
2018-03-26T12:57:06.984Z,80
2018-03-26T12:58:07.015Z,80
2018-03-26T12:59:06.780Z,75
2018-03-26T13:00:07.121Z,75
2018-03-26T13:01:07.336Z,70
2018-03-26T13:02:06.602Z,65
2018-03-26T13:03:06.596Z,65
2018-03-26T13:04:07.377Z,60
2018-03-26T13:05:08.396Z,60
2018-03-26T13:06:06.930Z,60
2018-03-26T13:07:07.182Z,60
2018-03-26T13:08:07.196Z,60
2018-03-26T13:09:07.218Z,60
2018-03-26T13:10:06.774Z,60
2018-03-26T13:11:07.259Z,55
2018-03-26T13:12:07.019Z,55
2018-03-26T13:13:07.299Z,55
2018-03-26T13:14:07.309Z,55
2018-03-26T13:15:07.537Z,55
2018-03-26T13:16:07.097Z,55
2018-03-26T13:17:07.111Z,60
2018-03-26T13:18:07.133Z,65
2018-03-26T13:19:06.894Z,65
2018-03-26T13:20:07.168Z,65
2018-03-26T13:21:07.745Z,65
2018-03-26T13:22:07.458Z,65
2018-03-26T13:23:07.500Z,65
2018-03-26T13:24:06.991Z,65
2018-03-26T13:25:07.315Z,65
2018-03-26T13:26:07.800Z,65
2018-03-26T13:27:07.573Z,65
2018-03-26T13:28:07.625Z,65
2018-03-26T13:29:07.328Z,65
2018-03-26T13:30:07.674Z,70
2018-03-26T13:31:07.637Z,70
2018-03-26T13:32:07.759Z,70
2018-03-26T13:33:07.665Z,70
2018-03-26T13:34:07.429Z,70
2018-03-26T13:35:07.447Z,70
2018-03-26T13:36:07.978Z,70
2018-03-26T13:37:07.736Z,75
2018-03-26T13:38:07.502Z,75
2018-03-26T13:39:07.520Z,75
2018-03-26T13:40:07.798Z,80
2018-03-26T13:41:07.807Z,90
2018-03-26T13:42:08.078Z,95
2018-03-26T13:43:07.855Z,100
2018-03-26T13:44:07.899Z,105
2018-03-26T13:45:07.634Z,110
2018-03-26T13:46:07.907Z,115
2018-03-26T13:47:07.977Z,120
2018-03-26T13:48:07.942Z,120
2018-03-26T13:49:07.973Z,120
2018-03-26T13:50:08.441Z,120
2018-03-26T13:51:08.002Z,115
2018-03-26T13:52:08.026Z,115
2018-03-26T13:53:08.049Z,115
2018-03-26T13:54:08.329Z,115
2018-03-26T13:55:07.827Z,110
2018-03-26T13:56:07.839Z,110
2018-03-26T13:57:07.883Z,110
2018-03-26T13:58:07.897Z,105
2018-03-26T13:59:07.897Z,105
2018-03-26T14:00:08.429Z,100
2018-03-26T14:01:08.192Z,100
2018-03-26T14:02:08.253Z,95
2018-03-26T14:03:07.978Z,95
2018-03-26T14:04:08.503Z,90
2018-03-26T14:05:08.525Z,85
2018-03-26T14:06:08.286Z,85
2018-03-26T14:07:08.318Z,85
2018-03-26T14:08:08.588Z,80
2018-03-26T14:09:08.347Z,80
2018-03-26T14:10:08.630Z,80
2018-03-26T14:11:08.424Z,80
2018-03-26T14:12:08.428Z,80
2018-03-26T14:13:08.412Z,80
2018-03-26T14:14:08.183Z,75
2018-03-26T14:15:08.462Z,75